SWA2633 KPBI-KMCO
Flight info
| Callsign | SWA2633 |
|---|---|
| Flight time | 0h 32m |
| Altitude | 20000 |
| Route | TBIRD7 CHEFS MUNGI1 |
| Aircraft | B738/M-SDE2E3FGHIRWXY/LB1 |
Departure
| Time | 2026-04-25 18:39 |
|---|---|
| Airport | Palm Beach International Airport (KPBI) |
Arrival
| Time | 2026-04-25 19:11 |
|---|---|
| Airport | Orlando International Airport (KMCO) |
| Time | Latitude | Longitude | Altitude | Speed | Heading |
|---|---|---|---|---|---|
| 2026-04-25 18:14 | 26.68782 | -80.09260 | 21 ft | 0 kts | 138° |
| 2026-04-25 18:25 | 26.68794 | -80.09272 | 21 ft | 4 kts | 138° |
| 2026-04-25 18:25 | 26.68814 | -80.09292 | 21 ft | 4 kts | 138° |
| 2026-04-25 18:26 | 26.68834 | -80.09312 | 23 ft | 4 kts | 138° |
| 2026-04-25 18:26 | 26.68849 | -80.09327 | 22 ft | 0 kts | 138° |
| 2026-04-25 18:30 | 26.68848 | -80.09327 | 22 ft | 1 kts | 139° |
| 2026-04-25 18:30 | 26.68829 | -80.09326 | 24 ft | 6 kts | 200° |
| 2026-04-25 18:30 | 26.68796 | -80.09379 | 21 ft | 9 kts | 236° |
| 2026-04-25 18:30 | 26.68754 | -80.09435 | 21 ft | 9 kts | 228° |
| 2026-04-25 18:31 | 26.68711 | -80.09488 | 21 ft | 9 kts | 222° |
| 2026-04-25 18:31 | 26.68654 | -80.09488 | 21 ft | 9 kts | 146° |
| 2026-04-25 18:31 | 26.68599 | -80.09432 | 21 ft | 12 kts | 137° |
| 2026-04-25 18:31 | 26.68541 | -80.09366 | 22 ft | 11 kts | 132° |
| 2026-04-25 18:32 | 26.68477 | -80.09366 | 21 ft | 9 kts | 212° |
| 2026-04-25 18:32 | 26.68417 | -80.09379 | 21 ft | 9 kts | 173° |
| 2026-04-25 18:32 | 26.68374 | -80.09417 | 21 ft | 9 kts | 256° |
| 2026-04-25 18:32 | 26.68373 | -80.09488 | 21 ft | 10 kts | 272° |
| 2026-04-25 18:33 | 26.68377 | -80.09577 | 21 ft | 13 kts | 273° |
| 2026-04-25 18:33 | 26.68382 | -80.09696 | 21 ft | 17 kts | 273° |
| 2026-04-25 18:33 | 26.68388 | -80.09832 | 21 ft | 17 kts | 273° |
| 2026-04-25 18:33 | 26.68394 | -80.09963 | 21 ft | 17 kts | 272° |
| 2026-04-25 18:34 | 26.68398 | -80.10090 | 21 ft | 16 kts | 274° |
| 2026-04-25 18:34 | 26.68404 | -80.10212 | 21 ft | 15 kts | 273° |
| 2026-04-25 18:34 | 26.68410 | -80.10328 | 21 ft | 15 kts | 272° |
| 2026-04-25 18:34 | 26.68413 | -80.10441 | 21 ft | 14 kts | 271° |
| 2026-04-25 18:35 | 26.68419 | -80.10548 | 21 ft | 13 kts | 274° |
| 2026-04-25 18:35 | 26.68423 | -80.10650 | 20 ft | 13 kts | 273° |
| 2026-04-25 18:35 | 26.68428 | -80.10745 | 20 ft | 10 kts | 272° |
| 2026-04-25 18:35 | 26.68429 | -80.10786 | 20 ft | 0 kts | 266° |
| 2026-04-25 18:36 | 26.68429 | -80.10787 | 20 ft | 1 kts | 266° |
| 2026-04-25 18:37 | 26.68418 | -80.10811 | 22 ft | 7 kts | 225° |
| 2026-04-25 18:37 | 26.68412 | -80.10815 | 22 ft | 7 kts | 212° |
| 2026-04-25 18:37 | 26.68384 | -80.10824 | 20 ft | 8 kts | 186° |
| 2026-04-25 18:37 | 26.68382 | -80.10824 | 20 ft | 8 kts | 184° |
| 2026-04-25 18:38 | 26.68335 | -80.10808 | 20 ft | 8 kts | 138° |
| 2026-04-25 18:38 | 26.68318 | -80.10743 | 20 ft | 15 kts | 94° |
| 2026-04-25 18:38 | 26.68301 | -80.10371 | 21 ft | 82 kts | 92° |
| 2026-04-25 18:38 | 26.68262 | -80.09494 | 21 ft | 139 kts | 92° |
| 2026-04-25 18:39 | 26.68220 | -80.08300 | 256 ft | 167 kts | 92° |
| 2026-04-25 18:39 | 26.68175 | -80.06945 | 812 ft | 180 kts | 92° |
| 2026-04-25 18:39 | 26.68164 | -80.05541 | 1653 ft | 184 kts | 84° |
| 2026-04-25 18:39 | 26.68675 | -80.04166 | 2157 ft | 204 kts | 62° |
| 2026-04-25 18:40 | 26.69399 | -80.02678 | 2362 ft | 229 kts | 63° |
| 2026-04-25 18:40 | 26.70155 | -80.01045 | 2688 ft | 248 kts | 64° |
| 2026-04-25 18:40 | 26.70988 | -79.99274 | 3224 ft | 260 kts | 59° |
| 2026-04-25 18:40 | 26.72248 | -79.97826 | 3999 ft | 267 kts | 30° |
| 2026-04-25 18:41 | 26.74001 | -79.97103 | 4809 ft | 271 kts | 12° |
| 2026-04-25 18:41 | 26.75865 | -79.96745 | 5612 ft | 273 kts | 5° |
| 2026-04-25 18:41 | 26.77739 | -79.96984 | 6407 ft | 272 kts | 334° |
| 2026-04-25 18:41 | 26.79258 | -79.98196 | 7197 ft | 270 kts | 310° |
| 2026-04-25 18:42 | 26.80219 | -79.99967 | 7977 ft | 271 kts | 291° |
| 2026-04-25 18:42 | 26.80655 | -80.01309 | 8481 ft | 274 kts | 289° |
| 2026-04-25 18:42 | 26.81462 | -80.04010 | 9467 ft | 278 kts | 289° |
| 2026-04-25 18:42 | 26.82081 | -80.06075 | 10234 ft | 281 kts | 289° |
| 2026-04-25 18:43 | 26.82730 | -80.08221 | 10508 ft | 302 kts | 289° |
| 2026-04-25 18:43 | 26.83435 | -80.10533 | 10686 ft | 325 kts | 289° |
| 2026-04-25 18:43 | 26.84193 | -80.13003 | 10885 ft | 344 kts | 289° |
| 2026-04-25 18:43 | 26.84983 | -80.15572 | 11376 ft | 352 kts | 289° |
| 2026-04-25 18:44 | 26.85783 | -80.18173 | 12060 ft | 354 kts | 289° |
| 2026-04-25 18:44 | 26.86589 | -80.20788 | 12755 ft | 357 kts | 289° |
| 2026-04-25 18:44 | 26.87403 | -80.23431 | 13387 ft | 362 kts | 289° |
| 2026-04-25 18:44 | 26.88226 | -80.26107 | 14047 ft | 365 kts | 289° |
| 2026-04-25 18:45 | 26.89057 | -80.28806 | 14713 ft | 366 kts | 289° |
| 2026-04-25 18:45 | 26.89889 | -80.31511 | 15376 ft | 369 kts | 289° |
| 2026-04-25 18:45 | 26.90841 | -80.34188 | 15988 ft | 372 kts | 300° |
| 2026-04-25 18:45 | 26.92501 | -80.36422 | 16619 ft | 376 kts | 318° |
| 2026-04-25 18:46 | 26.94696 | -80.38023 | 17252 ft | 381 kts | 334° |
| 2026-04-25 18:46 | 26.97171 | -80.39131 | 17844 ft | 386 kts | 337° |
| 2026-04-25 18:46 | 26.99690 | -80.40173 | 17961 ft | 385 kts | 338° |
| 2026-04-25 18:46 | 27.02186 | -80.41198 | 17981 ft | 387 kts | 338° |
| 2026-04-25 18:47 | 27.04719 | -80.42254 | 17989 ft | 388 kts | 337° |
| 2026-04-25 18:47 | 27.07242 | -80.43325 | 17984 ft | 387 kts | 337° |
| 2026-04-25 18:47 | 27.09761 | -80.44407 | 17998 ft | 390 kts | 337° |
| 2026-04-25 18:47 | 27.12314 | -80.45509 | 17990 ft | 393 kts | 337° |
| 2026-04-25 18:48 | 27.14823 | -80.46701 | 17975 ft | 391 kts | 329° |
| 2026-04-25 18:48 | 27.16937 | -80.48579 | 17993 ft | 388 kts | 312° |
| 2026-04-25 18:48 | 27.18681 | -80.50888 | 17983 ft | 388 kts | 309° |
| 2026-04-25 18:48 | 27.20385 | -80.53251 | 17984 ft | 388 kts | 308° |
| 2026-04-25 18:49 | 27.22080 | -80.55608 | 17981 ft | 388 kts | 308° |
| 2026-04-25 18:49 | 27.23780 | -80.57959 | 17974 ft | 387 kts | 309° |
| 2026-04-25 18:49 | 27.25489 | -80.60301 | 17969 ft | 387 kts | 309° |
| 2026-04-25 18:49 | 27.27204 | -80.62640 | 17967 ft | 386 kts | 309° |
| 2026-04-25 18:50 | 27.28915 | -80.64967 | 17967 ft | 386 kts | 309° |
| 2026-04-25 18:50 | 27.30628 | -80.67296 | 17965 ft | 386 kts | 309° |
| 2026-04-25 18:50 | 27.32319 | -80.69595 | 17964 ft | 386 kts | 309° |
| 2026-04-25 18:50 | 27.34029 | -80.71921 | 17972 ft | 386 kts | 309° |
| 2026-04-25 18:51 | 27.35744 | -80.74250 | 17965 ft | 386 kts | 310° |
| 2026-04-25 18:51 | 27.36357 | -80.75006 | 17953 ft | 386 kts | 315° |
| 2026-04-25 18:51 | 27.40190 | -80.77559 | 17977 ft | 390 kts | 337° |
| 2026-04-25 18:51 | 27.42732 | -80.78626 | 17971 ft | 391 kts | 338° |
| 2026-04-25 18:52 | 27.45293 | -80.79684 | 17968 ft | 391 kts | 338° |
| 2026-04-25 18:52 | 27.47838 | -80.80751 | 17967 ft | 391 kts | 337° |
| 2026-04-25 18:52 | 27.50387 | -80.81839 | 17974 ft | 391 kts | 337° |
| 2026-04-25 18:52 | 27.52926 | -80.82936 | 17969 ft | 391 kts | 337° |
| 2026-04-25 18:53 | 27.55465 | -80.84038 | 17965 ft | 391 kts | 337° |
| 2026-04-25 18:53 | 27.57985 | -80.85197 | 17973 ft | 390 kts | 334° |
| 2026-04-25 18:53 | 27.60458 | -80.86464 | 17976 ft | 390 kts | 333° |
| 2026-04-25 18:53 | 27.62907 | -80.87767 | 17967 ft | 390 kts | 333° |
| 2026-04-25 18:54 | 27.67807 | -80.90385 | 17966 ft | 385 kts | 333° |
| 2026-04-25 18:54 | 27.70176 | -80.91638 | 17950 ft | 370 kts | 333° |
| 2026-04-25 18:54 | 27.72470 | -80.92846 | 17925 ft | 356 kts | 333° |
| 2026-04-25 18:55 | 27.74700 | -80.94018 | 17631 ft | 350 kts | 333° |
| 2026-04-25 18:55 | 27.76885 | -80.95166 | 17287 ft | 345 kts | 333° |
| 2026-04-25 18:55 | 27.79054 | -80.96306 | 16875 ft | 342 kts | 333° |
| 2026-04-25 18:55 | 27.81177 | -80.97423 | 16482 ft | 340 kts | 333° |
| 2026-04-25 18:56 | 27.83313 | -80.98546 | 16080 ft | 338 kts | 333° |
| 2026-04-25 18:56 | 27.85466 | -80.99679 | 15679 ft | 336 kts | 333° |
| 2026-04-25 18:56 | 27.87575 | -81.00788 | 15282 ft | 334 kts | 333° |
| 2026-04-25 18:56 | 27.89680 | -81.01896 | 14879 ft | 333 kts | 333° |
| 2026-04-25 18:57 | 27.91771 | -81.02997 | 14483 ft | 331 kts | 333° |
| 2026-04-25 18:57 | 27.93867 | -81.04081 | 14081 ft | 330 kts | 335° |
| 2026-04-25 18:57 | 27.95979 | -81.05020 | 13657 ft | 331 kts | 338° |
| 2026-04-25 18:57 | 27.96711 | -81.05326 | 13504 ft | 331 kts | 338° |
| 2026-04-25 18:58 | 28.00295 | -81.06799 | 12799 ft | 328 kts | 338° |
| 2026-04-25 18:58 | 28.04544 | -81.08577 | 12016 ft | 324 kts | 338° |
| 2026-04-25 18:58 | 28.06647 | -81.09467 | 11627 ft | 322 kts | 338° |
| 2026-04-25 18:59 | 28.10816 | -81.11264 | 10863 ft | 319 kts | 337° |
| 2026-04-25 18:59 | 28.14887 | -81.13063 | 10464 ft | 306 kts | 337° |
| 2026-04-25 19:00 | 28.18752 | -81.14770 | 10200 ft | 289 kts | 337° |
| 2026-04-25 19:00 | 28.20606 | -81.15588 | 10074 ft | 282 kts | 337° |
| 2026-04-25 19:01 | 28.24206 | -81.17177 | 9603 ft | 276 kts | 337° |
| 2026-04-25 19:01 | 28.25996 | -81.17967 | 9320 ft | 275 kts | 337° |
| 2026-04-25 19:01 | 28.27821 | -81.18605 | 9023 ft | 276 kts | 352° |
| 2026-04-25 19:01 | 28.29732 | -81.18659 | 8775 ft | 275 kts | 359° |
| 2026-04-25 19:02 | 28.33510 | -81.18660 | 8353 ft | 268 kts | 358° |
| 2026-04-25 19:02 | 28.35358 | -81.18684 | 8210 ft | 262 kts | 358° |
| 2026-04-25 19:02 | 28.37159 | -81.18714 | 8097 ft | 255 kts | 358° |
| 2026-04-25 19:03 | 28.39491 | -81.18754 | 7916 ft | 248 kts | 358° |
| 2026-04-25 19:03 | 28.41786 | -81.18775 | 7632 ft | 250 kts | 358° |
| 2026-04-25 19:03 | 28.43532 | -81.18789 | 7405 ft | 251 kts | 358° |
| 2026-04-25 19:04 | 28.47016 | -81.18816 | 6955 ft | 249 kts | 358° |
| 2026-04-25 19:04 | 28.48751 | -81.18829 | 6742 ft | 249 kts | 358° |
| 2026-04-25 19:05 | 28.52228 | -81.18858 | 6249 ft | 249 kts | 358° |
| 2026-04-25 19:05 | 28.55694 | -81.18887 | 5719 ft | 250 kts | 359° |
| 2026-04-25 19:05 | 28.57435 | -81.18901 | 5447 ft | 250 kts | 359° |
| 2026-04-25 19:06 | 28.59155 | -81.18914 | 5177 ft | 251 kts | 358° |
| 2026-04-25 19:06 | 28.62383 | -81.20079 | 4610 ft | 249 kts | 314° |
| 2026-04-25 19:06 | 28.63354 | -81.21671 | 4328 ft | 245 kts | 290° |
| 2026-04-25 19:07 | 28.63371 | -81.25406 | 3786 ft | 239 kts | 246° |
| 2026-04-25 19:07 | 28.62475 | -81.26978 | 3553 ft | 235 kts | 225° |
| 2026-04-25 19:08 | 28.59628 | -81.28374 | 3065 ft | 222 kts | 182° |
| 2026-04-25 19:08 | 28.58089 | -81.28405 | 2769 ft | 220 kts | 180° |
| 2026-04-25 19:09 | 28.53603 | -81.28351 | 1935 ft | 209 kts | 180° |
| 2026-04-25 19:09 | 28.52635 | -81.28342 | 1746 ft | 203 kts | 180° |
| 2026-04-25 19:09 | 28.49558 | -81.28309 | 1152 ft | 175 kts | 180° |
| 2026-04-25 19:10 | 28.48392 | -81.28293 | 929 ft | 161 kts | 179° |
| 2026-04-25 19:10 | 28.47300 | -81.28284 | 669 ft | 154 kts | 180° |
| 2026-04-25 19:10 | 28.46239 | -81.28268 | 464 ft | 151 kts | 179° |
| 2026-04-25 19:10 | 28.45206 | -81.28261 | 302 ft | 147 kts | 180° |
| 2026-04-25 19:11 | 28.44196 | -81.28255 | 118 ft | 144 kts | 181° |
| 2026-04-25 19:11 | 28.43270 | -81.28248 | 95 ft | 117 kts | 179° |
| 2026-04-25 19:11 | 28.42716 | -81.28240 | 98 ft | 49 kts | 180° |
| 2026-04-25 19:11 | 28.42549 | -81.28306 | 100 ft | 22 kts | 227° |
| 2026-04-25 19:12 | 28.42489 | -81.28460 | 94 ft | 21 kts | 251° |
| 2026-04-25 19:12 | 28.42442 | -81.28614 | 99 ft | 21 kts | 250° |
| 2026-04-25 19:12 | 28.42393 | -81.28764 | 102 ft | 20 kts | 253° |
| 2026-04-25 19:12 | 28.42349 | -81.28912 | 103 ft | 20 kts | 250° |
| 2026-04-25 19:13 | 28.42301 | -81.29080 | 93 ft | 24 kts | 256° |
| 2026-04-25 19:13 | 28.42284 | -81.29265 | 93 ft | 23 kts | 270° |
| 2026-04-25 19:13 | 28.42283 | -81.29436 | 94 ft | 9 kts | 270° |
| 2026-04-25 19:13 | 28.42283 | -81.29486 | 94 ft | 8 kts | 270° |
| 2026-04-25 19:14 | 28.42283 | -81.29592 | 93 ft | 16 kts | 269° |
| 2026-04-25 19:14 | 28.42279 | -81.29674 | 93 ft | 15 kts | 265° |
| 2026-04-25 19:14 | 28.42337 | -81.29794 | 94 ft | 14 kts | 345° |
| 2026-04-25 19:14 | 28.42435 | -81.29796 | 94 ft | 14 kts | 359° |